Ehrsten, Germany

7:15 PM CET on March 01, 2017 (GMT +0100)
Calden | | Change Station

Elev 0 ft 51.39 °N, 9.37 °E | Updated 50 seconds ago

Scattered Clouds
Scattered Clouds
41.0 °F
Feels Like 41 °F
N
1.2
Wind Variable Wind from SW
Gusts 3.1 mph

Today
High -- | Low -- °F
--% Chance of Precip.
Yesterday
High -- | Low -- °F
Precip. -- in
Pressure 29.59 in
Visibility 6.2 miles
Clouds Few 1500 ft
Scattered Clouds 2500 ft
Windchill 41 °F
Dew Point 36 °F
Humidity 82%
Rainfall 0.11 in
Snow Depth Not available.
7:07 AM 6:03 PM
Waxing Crescent, 12% visible
METAR EDVK 011750Z 20006KT 9999 FEW015 SCT025 05/02 Q1002
Pressure 29.59 in
Visibility 6.2 miles
Clouds Few 1500 ft
Scattered Clouds 2500 ft
Windchill 41 °F
Dew Point 36 °F
Humidity 82%
Rainfall 0.11 in
Snow Depth Not available.
7:07 AM 6:03 PM
Waxing Crescent, 12% visible
METAR EDVK 011750Z 20006KT 9999 FEW015 SCT025 05/02 Q1002

Get Your Daily Forecast Email!

Thanks for signing up!

Be on the lookout for a verification email in your inbox.

You'll start receiving the daily forecast at 8 AM.

×

10-Day Weather Forecast

×

Almanac

Astronomy

Mar. 01, 2017 Rise Set
Actual Time
Civil Twilight
Nautical Twilight
Astronomical Twilight
Moon
Length of Visible Light
Length of Day
Tomorrow will be .
, % of the Moon is Illuminated

Today's Extremes

Country Highs Country Lows

Community

WunderPhotos

Upload Photos

1,962,540 photos uploaded!

WunderBlog® & News

Nearby

Air Quality

  Air Quality AQ Index Pollutant
Not available.

Snow Depth

Station Depth Elevation

Earthquake Activity

City Distance Mag. Time & Date
Minimum magnitude displayed is 2.5.

Coastal Water Temperatures

Place Temperature

Stations

Nearby Weather Stations

Station Location Temp. Windchill Dew Point Humidity Wind Precip. Elev Updated Type